createdAt,value
2022-11-19T00:02:05.546Z,-6.05
2022-11-19T00:04:35.132Z,-6.20
2022-11-19T00:07:04.408Z,-6.18
2022-11-19T00:09:32.591Z,-6.25
2022-11-19T00:12:18.268Z,-6.23
2022-11-19T00:14:46.583Z,-6.21
2022-11-19T00:17:14.784Z,-6.26
2022-11-19T00:19:44.431Z,-6.17
2022-11-19T00:22:12.715Z,-6.20
2022-11-19T00:24:40.858Z,-6.21
2022-11-19T00:27:09.084Z,-6.22
2022-11-19T00:29:37.348Z,-6.21
2022-11-19T00:32:05.899Z,-6.33
2022-11-19T00:34:34.052Z,-6.25
2022-11-19T00:37:03.758Z,-6.30
2022-11-19T00:39:31.939Z,-6.19
2022-11-19T00:42:00.131Z,-6.22
2022-11-19T00:44:32.575Z,-6.32
2022-11-19T00:47:04.148Z,-6.29
2022-11-19T00:49:32.314Z,-6.25
2022-11-19T00:52:00.435Z,-6.52
2022-11-19T00:54:29.904Z,-6.40
2022-11-19T00:56:58.422Z,-6.40
2022-11-19T00:59:26.903Z,-6.38
2022-11-19T01:01:55.120Z,-6.35
2022-11-19T01:04:23.517Z,-6.43
2022-11-19T01:06:51.695Z,-6.46
2022-11-19T01:09:20.502Z,-6.43
2022-11-19T01:11:50.130Z,-6.52
2022-11-19T01:14:18.401Z,-6.46
2022-11-19T01:16:46.948Z,-6.54
2022-11-19T01:19:16.572Z,-6.47
2022-11-19T01:21:44.995Z,-6.55
2022-11-19T01:24:13.230Z,-6.87
2022-11-19T01:26:45.578Z,-6.97
2022-11-19T01:29:15.664Z,-6.79
2022-11-19T01:31:43.846Z,-6.45
2022-11-19T01:34:12.035Z,-6.52
2022-11-19T01:36:40.231Z,-6.49
2022-11-19T01:39:08.378Z,-6.70
2022-11-19T01:41:36.578Z,-6.56
2022-11-19T01:44:07.028Z,-6.46
2022-11-19T01:46:39.731Z,-6.52
2022-11-19T01:49:11.459Z,-6.59
2022-11-19T01:51:44.943Z,-6.61
2022-11-19T01:54:22.924Z,-6.65
2022-11-19T01:56:51.118Z,-6.65
2022-11-19T01:59:20.476Z,-6.54
2022-11-19T02:01:50.286Z,-6.53
2022-11-19T02:04:20.033Z,-6.60
2022-11-19T02:06:48.874Z,-6.62
2022-11-19T02:09:17.165Z,-6.76
2022-11-19T02:12:03.850Z,-6.80
2022-11-19T02:14:55.355Z,-7.05
2022-11-19T02:17:39.946Z,-7.04
2022-11-19T02:20:45.283Z,-6.72
2022-11-19T02:23:48.046Z,-6.98
2022-11-19T02:26:44.359Z,-6.65
2022-11-19T02:29:27.134Z,-6.62
2022-11-19T02:32:01.888Z,-6.62
2022-11-19T02:34:34.702Z,-6.68
2022-11-19T02:37:12.119Z,-6.64
2022-11-19T02:39:45.929Z,-6.86
2022-11-19T02:42:21.813Z,-6.82
2022-11-19T02:44:59.753Z,-6.75
2022-11-19T02:47:33.028Z,-6.73
2022-11-19T02:50:04.692Z,-6.75
2022-11-19T02:52:33.483Z,-6.70
2022-11-19T02:55:01.762Z,-6.84
2022-11-19T02:57:29.902Z,-6.92
2022-11-19T03:00:19.358Z,-6.81
2022-11-19T03:03:21.627Z,-6.82
2022-11-19T03:05:54.635Z,-6.79
2022-11-19T03:08:23.096Z,-6.79
2022-11-19T03:11:00.051Z,-6.79
2022-11-19T03:13:55.608Z,-6.84
2022-11-19T03:16:43.502Z,-6.97
2022-11-19T03:19:24.446Z,-6.94
2022-11-19T03:21:57.592Z,-6.90
2022-11-19T03:24:31.440Z,-6.93
2022-11-19T03:27:05.275Z,-6.97
2022-11-19T03:29:37.614Z,-7.06
2022-11-19T03:32:10.930Z,-6.94
2022-11-19T03:34:44.020Z,-6.94
2022-11-19T03:37:13.440Z,-7.03
2022-11-19T03:39:44.881Z,-7.59
2022-11-19T03:42:16.102Z,-7.04
2022-11-19T03:44:49.096Z,-6.98
2022-11-19T03:47:20.514Z,-6.99
2022-11-19T03:49:58.846Z,-7.33
2022-11-19T03:52:27.052Z,-6.93
2022-11-19T03:54:55.716Z,-7.24
2022-11-19T03:57:27.354Z,-7.04
2022-11-19T03:59:55.552Z,-6.87
2022-11-19T04:02:23.882Z,-6.85
2022-11-19T04:04:53.448Z,-7.02
2022-11-19T04:07:23.276Z,-6.86
2022-11-19T04:09:51.590Z,-6.86
2022-11-19T04:12:21.781Z,-6.74
2022-11-19T04:14:50.611Z,-6.66
2022-11-19T04:17:20.083Z,-6.69
2022-11-19T04:19:48.695Z,-6.76
2022-11-19T04:22:18.243Z,-6.73
2022-11-19T04:24:46.391Z,-6.75
2022-11-19T04:27:14.610Z,-6.69
2022-11-19T04:29:42.798Z,-6.76
2022-11-19T04:32:11.394Z,-6.76
2022-11-19T04:34:39.526Z,-6.85
2022-11-19T04:37:07.654Z,-6.88
2022-11-19T04:39:37.313Z,-6.92
2022-11-19T04:42:05.717Z,-6.89
2022-11-19T04:44:34.200Z,-6.86
2022-11-19T04:47:02.366Z,-6.72
2022-11-19T04:49:30.531Z,-6.75
2022-11-19T04:51:58.664Z,-6.78
2022-11-19T04:54:26.812Z,-6.73
2022-11-19T04:56:56.313Z,-6.81
2022-11-19T04:59:24.475Z,-6.71
2022-11-19T05:01:52.853Z,-6.68
2022-11-19T05:04:21.080Z,-6.78
2022-11-19T05:06:49.263Z,-6.74
2022-11-19T05:09:17.748Z,-6.74
2022-11-19T05:11:46.224Z,-6.74
2022-11-19T05:14:15.711Z,-6.75
2022-11-19T05:16:43.830Z,-6.86
2022-11-19T05:19:11.982Z,-6.75
2022-11-19T05:21:40.299Z,-6.75
2022-11-19T05:24:09.047Z,-6.73
2022-11-19T05:26:37.170Z,-6.57
2022-11-19T05:29:05.291Z,-6.53
2022-11-19T05:31:34.764Z,-6.54
2022-11-19T05:34:02.879Z,-6.49
2022-11-19T05:36:31.045Z,-6.40
2022-11-19T05:38:59.175Z,-6.34
2022-11-19T05:41:27.344Z,-6.17
2022-11-19T05:43:55.698Z,-6.13
2022-11-19T05:46:24.130Z,-6.07
2022-11-19T05:48:53.595Z,-6.07
2022-11-19T05:51:21.763Z,-6.05
2022-11-19T05:53:49.913Z,-6.05
2022-11-19T05:56:18.199Z,-6.03
2022-11-19T05:58:46.355Z,-5.99
2022-11-19T06:01:15.238Z,-6.00
2022-11-19T06:03:43.353Z,-6.02
2022-11-19T06:06:12.809Z,-5.96
2022-11-19T06:08:41.505Z,-5.87
2022-11-19T06:11:29.801Z,-5.82
2022-11-19T06:13:57.945Z,-5.86
2022-11-19T06:16:26.381Z,-5.95
2022-11-19T06:18:54.581Z,-5.97
2022-11-19T06:21:24.054Z,-5.95
2022-11-19T06:23:52.503Z,-6.02
2022-11-19T06:26:23.427Z,-5.88
2022-11-19T06:28:51.746Z,-5.86
2022-11-19T06:31:20.115Z,-5.68
2022-11-19T06:33:48.543Z,-5.58
2022-11-19T06:36:17.206Z,-5.48
2022-11-19T06:38:46.760Z,-5.39
2022-11-19T06:41:14.992Z,-5.27
2022-11-19T06:43:43.531Z,-5.46
2022-11-19T06:46:12.385Z,-5.12
2022-11-19T06:48:40.846Z,-5.02
2022-11-19T06:51:09.956Z,-5.00
2022-11-19T06:53:38.184Z,-4.90
2022-11-19T06:56:09.367Z,-4.73
2022-11-19T06:58:37.720Z,-4.66
2022-11-19T07:01:06.077Z,-4.58
2022-11-19T07:03:34.776Z,-4.59
2022-11-19T07:06:04.811Z,-4.26
2022-11-19T07:08:35.543Z,-4.19
2022-11-19T07:11:25.477Z,-4.21
2022-11-19T07:13:59.591Z,-4.17
2022-11-19T07:16:31.782Z,-4.13
2022-11-19T07:19:01.224Z,-4.11
2022-11-19T07:21:30.625Z,-4.15
2022-11-19T07:24:00.273Z,-4.06
2022-11-19T07:26:28.662Z,-3.94
2022-11-19T07:29:03.149Z,-3.88
2022-11-19T07:31:33.400Z,-3.77
2022-11-19T07:34:01.695Z,-3.75
2022-11-19T07:36:29.949Z,-3.69
2022-11-19T07:38:58.557Z,-3.61
2022-11-19T07:41:44.423Z,-3.57
2022-11-19T07:44:14.100Z,-3.64
2022-11-19T07:46:42.605Z,-3.45
2022-11-19T07:49:10.738Z,-3.45
2022-11-19T07:51:38.883Z,-3.40
2022-11-19T07:54:11.559Z,-3.33
2022-11-19T07:56:41.522Z,-3.24
2022-11-19T07:59:10.106Z,-3.30
2022-11-19T08:01:39.829Z,-3.15
2022-11-19T08:04:08.035Z,-3.16
2022-11-19T08:06:36.353Z,-2.94
2022-11-19T08:09:06.216Z,-2.89
2022-11-19T08:11:34.682Z,-2.62
2022-11-19T08:14:02.956Z,-2.43
2022-11-19T08:16:50.968Z,-2.20
2022-11-19T08:19:20.627Z,-1.97
2022-11-19T08:21:49.047Z,-1.94
2022-11-19T08:24:19.738Z,-1.78
2022-11-19T08:26:49.372Z,-1.73
2022-11-19T08:29:20.004Z,-1.76
2022-11-19T08:31:49.161Z,-1.73
2022-11-19T08:34:18.531Z,-1.73
2022-11-19T08:36:48.255Z,-1.92
2022-11-19T08:39:16.407Z,-1.76
2022-11-19T08:42:02.160Z,-1.73
2022-11-19T08:44:30.302Z,-1.54
2022-11-19T08:46:58.423Z,-1.71
2022-11-19T08:49:26.541Z,-1.71
2022-11-19T08:51:57.515Z,-1.67
2022-11-19T08:54:25.897Z,-1.68
2022-11-19T08:56:54.346Z,-1.74
2022-11-19T08:59:22.659Z,-1.60
2022-11-19T09:01:51.035Z,-1.48
2022-11-19T09:04:19.459Z,-1.36
2022-11-19T09:06:47.732Z,-1.20
2022-11-19T09:09:17.832Z,-1.15
2022-11-19T09:11:46.220Z,-1.08
2022-11-19T09:14:14.395Z,-0.98
2022-11-19T09:16:42.531Z,-1.04
2022-11-19T09:19:10.651Z,-1.10
2022-11-19T09:21:38.762Z,-1.27
2022-11-19T09:24:07.756Z,-1.14
2022-11-19T09:26:37.613Z,-1.14
2022-11-19T09:29:06.136Z,-1.18
2022-11-19T09:31:34.304Z,-1.15
2022-11-19T09:34:03.873Z,-1.21
2022-11-19T09:36:32.028Z,-1.17
2022-11-19T09:39:02.135Z,-1.15
2022-11-19T09:41:44.539Z,-1.11
2022-11-19T09:44:34.872Z,-1.27
2022-11-19T09:47:13.967Z,-1.28
2022-11-19T09:49:48.014Z,-1.16
2022-11-19T09:52:21.164Z,-1.11
2022-11-19T09:54:51.520Z,-1.18
2022-11-19T09:57:28.593Z,-1.25
2022-11-19T09:59:58.396Z,-1.44
2022-11-19T10:02:26.682Z,-1.43
2022-11-19T10:04:55.015Z,-1.37
2022-11-19T10:07:35.216Z,-1.27
2022-11-19T10:10:16.489Z,-1.23
2022-11-19T10:13:12.591Z,-1.23
2022-11-19T10:16:01.740Z,-1.17
2022-11-19T10:18:36.327Z,-1.10
2022-11-19T10:21:09.985Z,-0.95
2022-11-19T10:23:50.539Z,-0.88
2022-11-19T10:26:20.292Z,-0.84
2022-11-19T10:28:56.820Z,-0.74
2022-11-19T10:31:33.776Z,-0.64
2022-11-19T10:34:10.821Z,-0.50
2022-11-19T10:36:43.531Z,-0.53
2022-11-19T10:39:21.376Z,-0.52
2022-11-19T10:41:54.222Z,-0.51
2022-11-19T10:44:40.411Z,-0.57
2022-11-19T10:47:14.502Z,-0.38
2022-11-19T10:49:43.984Z,-0.23
2022-11-19T10:52:23.881Z,-0.04
2022-11-19T10:54:55.195Z,-0.11
2022-11-19T10:57:24.848Z,-0.05
2022-11-19T10:59:55.066Z,0.03
2022-11-19T11:02:31.501Z,0.02
2022-11-19T11:05:12.119Z,0.04
2022-11-19T11:07:55.435Z,-0.07
2022-11-19T11:10:37.120Z,-0.10
2022-11-19T11:13:36.015Z,-0.02
2022-11-19T11:16:12.180Z,0.29
2022-11-19T11:18:41.529Z,0.36
2022-11-19T11:21:14.554Z,0.33
2022-11-19T11:23:50.743Z,0.15
2022-11-19T11:26:22.886Z,0.07
2022-11-19T11:29:00.602Z,0.14
2022-11-19T11:31:32.739Z,0.10
2022-11-19T11:34:02.265Z,0.10
2022-11-19T11:36:33.308Z,-0.05
2022-11-19T11:39:03.259Z,-0.04
2022-11-19T11:44:29.255Z,-0.13
2022-11-19T11:47:01.902Z,-0.06
2022-11-19T11:49:34.974Z,0.15
2022-11-19T11:52:19.447Z,0.23
2022-11-19T11:54:56.735Z,0.41
2022-11-19T11:57:27.178Z,0.42
2022-11-19T11:59:56.121Z,0.39
2022-11-19T12:02:30.242Z,0.28
2022-11-19T12:05:02.484Z,0.42
2022-11-19T12:08:03.640Z,0.43
2022-11-19T12:10:42.168Z,0.57
2022-11-19T12:13:39.888Z,0.51
2022-11-19T12:16:14.376Z,0.74
2022-11-19T12:18:54.354Z,0.72
2022-11-19T12:21:34.074Z,0.94
2022-11-19T12:24:25.061Z,0.97
2022-11-19T12:27:04.724Z,1.09
2022-11-19T12:29:42.882Z,1.12
2022-11-19T12:32:21.998Z,1.09
2022-11-19T12:35:05.190Z,1.01
2022-11-19T12:37:52.046Z,0.98
2022-11-19T12:40:38.911Z,0.90
2022-11-19T12:43:19.016Z,0.93
2022-11-19T12:45:56.471Z,0.90
2022-11-19T12:48:45.640Z,0.79
2022-11-19T12:51:24.725Z,0.73
2022-11-19T12:54:09.363Z,0.77
2022-11-19T12:56:47.566Z,0.69
2022-11-19T12:59:41.246Z,0.65
2022-11-19T13:02:19.044Z,0.51
2022-11-19T13:04:53.857Z,0.40
2022-11-19T13:07:28.182Z,0.23
2022-11-19T13:10:00.784Z,0.22
2022-11-19T13:12:35.243Z,0.08
2022-11-19T13:15:07.077Z,-0.09
2022-11-19T13:17:40.344Z,-0.16
2022-11-19T13:20:16.064Z,-0.22
2022-11-19T13:22:47.643Z,-0.17
2022-11-19T13:25:21.705Z,-0.14
2022-11-19T13:27:52.069Z,-0.18
2022-11-19T13:30:22.729Z,-0.21
2022-11-19T13:32:58.485Z,-0.24
2022-11-19T13:35:32.581Z,-0.22
2022-11-19T13:38:11.867Z,-0.24
2022-11-19T13:40:45.811Z,-0.19
2022-11-19T13:43:34.388Z,-0.13
2022-11-19T13:46:09.768Z,-0.19
2022-11-19T13:48:42.189Z,-0.19
2022-11-19T13:51:26.927Z,-0.21
2022-11-19T13:54:02.609Z,-0.30
2022-11-19T13:56:46.800Z,-0.17
2022-11-19T13:59:30.747Z,-0.17
2022-11-19T14:02:19.977Z,-0.11
2022-11-19T14:05:06.483Z,-0.05
2022-11-19T14:08:00.191Z,-0.17
2022-11-19T14:10:35.654Z,-0.10
2022-11-19T14:13:15.630Z,-0.02
2022-11-19T14:16:16.166Z,0.13
2022-11-19T14:19:05.944Z,0.23
2022-11-19T14:22:09.859Z,0.05
2022-11-19T14:25:13.006Z,0.14
2022-11-19T14:27:42.908Z,0.17
2022-11-19T14:30:22.156Z,0.18
2022-11-19T14:32:52.616Z,0.20
2022-11-19T14:35:41.961Z,0.11
2022-11-19T14:38:30.854Z,0.17
2022-11-19T14:41:25.331Z,0.11
2022-11-19T14:44:11.493Z,0.03
2022-11-19T14:46:42.757Z,0.15
2022-11-19T14:49:31.577Z,0.13
2022-11-19T14:52:00.204Z,0.06
2022-11-19T14:54:32.845Z,0.08
2022-11-19T14:57:06.131Z,0.12
2022-11-19T14:59:38.760Z,0.09
2022-11-19T15:02:21.458Z,0.13
2022-11-19T15:05:00.657Z,0.04
2022-11-19T15:07:55.916Z,0.02
2022-11-19T15:10:30.525Z,0.03
2022-11-19T15:13:32.824Z,0.10
2022-11-19T15:16:11.129Z,0.09
2022-11-19T15:19:20.856Z,0.09
2022-11-19T15:22:21.282Z,0.11
2022-11-19T15:25:12.514Z,0.03
2022-11-19T15:27:53.260Z,-0.12
2022-11-19T15:30:23.998Z,0.01
2022-11-19T15:33:11.856Z,-0.01
2022-11-19T15:36:06.490Z,-0.05
2022-11-19T15:38:39.510Z,-0.02
2022-11-19T15:41:13.696Z,-0.16
2022-11-19T15:43:45.863Z,-0.15
2022-11-19T15:46:19.473Z,-0.14
2022-11-19T15:48:58.738Z,-0.30
2022-11-19T15:51:27.131Z,-0.34
2022-11-19T15:54:00.341Z,-0.43
2022-11-19T15:56:33.055Z,-0.48
2022-11-19T15:59:03.396Z,-0.38
2022-11-19T16:01:34.321Z,-0.37
2022-11-19T16:04:10.114Z,-0.42
2022-11-19T16:06:40.108Z,-0.33
2022-11-19T16:09:08.719Z,-0.39
2022-11-19T16:11:56.696Z,-0.40
2022-11-19T16:14:44.276Z,-0.41
2022-11-19T16:17:31.741Z,-0.35
2022-11-19T16:20:04.691Z,-0.33
2022-11-19T16:22:33.888Z,-0.36
2022-11-19T16:25:05.253Z,-0.34
2022-11-19T16:27:33.454Z,-0.42
2022-11-19T16:30:01.660Z,-0.35
2022-11-19T16:32:30.089Z,-0.35
2022-11-19T16:35:11.882Z,-0.42
2022-11-19T16:37:41.007Z,-0.36
2022-11-19T16:40:16.379Z,-0.43
2022-11-19T16:42:48.336Z,-0.40
2022-11-19T16:45:20.791Z,-0.48
2022-11-19T16:47:54.299Z,-0.38
2022-11-19T16:50:31.604Z,-0.51
2022-11-19T16:53:01.019Z,-0.43
2022-11-19T16:55:46.237Z,-0.45
2022-11-19T16:58:27.935Z,-0.47
2022-11-19T17:00:59.416Z,-0.45
2022-11-19T17:03:35.430Z,-0.52
2022-11-19T17:06:06.071Z,-0.59
2022-11-19T17:08:36.495Z,-0.44
2022-11-19T17:11:36.388Z,-0.71
2022-11-19T17:14:19.388Z,-0.53
2022-11-19T17:16:49.530Z,-0.65
2022-11-19T17:19:27.460Z,-0.58
2022-11-19T17:22:01.218Z,-0.63
2022-11-19T17:24:32.757Z,-0.61
2022-11-19T17:27:01.969Z,-0.63
2022-11-19T17:29:30.241Z,-0.61
2022-11-19T17:31:58.790Z,-0.57
2022-11-19T17:34:33.086Z,-0.56
2022-11-19T17:37:02.601Z,-0.56
2022-11-19T17:39:30.743Z,-0.54
2022-11-19T17:42:16.622Z,-0.54
2022-11-19T17:44:44.796Z,-0.42
2022-11-19T17:47:24.052Z,-0.49
2022-11-19T17:49:53.233Z,-0.47
2022-11-19T17:52:24.680Z,-0.61
2022-11-19T17:54:56.031Z,-0.57
2022-11-19T17:57:24.163Z,-0.65
2022-11-19T17:59:52.281Z,-0.51
2022-11-19T18:02:21.594Z,-0.48
2022-11-19T18:04:50.094Z,-0.48
2022-11-19T18:07:18.305Z,-0.49
2022-11-19T18:09:47.904Z,-0.45
2022-11-19T18:12:18.365Z,-0.46
2022-11-19T18:14:47.551Z,-0.43
2022-11-19T18:17:16.896Z,-0.43
2022-11-19T18:19:45.159Z,-0.37
2022-11-19T18:22:19.024Z,-0.32
2022-11-19T18:24:49.758Z,-0.32
2022-11-19T18:27:18.549Z,-0.39
2022-11-19T18:29:46.834Z,-0.42
2022-11-19T18:32:16.970Z,-0.37
2022-11-19T18:34:46.447Z,-0.39
2022-11-19T18:37:14.744Z,-0.42
2022-11-19T18:39:42.864Z,-0.33
2022-11-19T18:42:12.906Z,-0.28
2022-11-19T18:44:43.218Z,-0.47
2022-11-19T18:47:13.661Z,-0.43
2022-11-19T18:49:42.502Z,-0.43
2022-11-19T18:52:14.901Z,-0.38
2022-11-19T18:54:43.183Z,-0.52
2022-11-19T18:57:13.726Z,-0.48
2022-11-19T18:59:41.878Z,-0.34
2022-11-19T19:02:10.993Z,-0.39
2022-11-19T19:04:39.191Z,-0.33
2022-11-19T19:07:07.394Z,-0.25
2022-11-19T19:09:37.360Z,-0.32
2022-11-19T19:12:18.479Z,-0.37
2022-11-19T19:14:51.462Z,-0.13
2022-11-19T19:17:20.157Z,-0.16
2022-11-19T19:19:49.083Z,-0.31
2022-11-19T19:22:18.215Z,-0.15
2022-11-19T19:24:46.988Z,-0.10
2022-11-19T19:27:15.727Z,-0.11
2022-11-19T19:29:44.001Z,-0.28
2022-11-19T19:32:13.498Z,-0.25
2022-11-19T19:34:41.711Z,-0.24
2022-11-19T19:37:10.190Z,-0.13
2022-11-19T19:39:38.424Z,0.08
2022-11-19T19:42:06.730Z,0.00
2022-11-19T19:44:34.990Z,-0.02
2022-11-19T19:47:03.214Z,-0.31
2022-11-19T19:49:38.402Z,-0.25
2022-11-19T19:52:07.232Z,-0.15
2022-11-19T19:54:35.372Z,-0.13
2022-11-19T19:57:03.522Z,0.01
2022-11-19T19:59:31.803Z,0.03
2022-11-19T20:01:59.992Z,-0.06
2022-11-19T20:04:28.217Z,-0.14
2022-11-19T20:06:57.729Z,-0.04
2022-11-19T20:09:26.125Z,-0.11
2022-11-19T20:11:54.639Z,-0.08
2022-11-19T20:14:22.761Z,-0.12
2022-11-19T20:16:51.721Z,-0.01
2022-11-19T20:19:19.877Z,0.04
2022-11-19T20:21:48.244Z,-0.03
2022-11-19T20:24:19.973Z,-0.15
2022-11-19T20:26:48.151Z,-0.02
2022-11-19T20:29:17.608Z,0.22
2022-11-19T20:31:47.928Z,0.00
2022-11-19T20:34:17.115Z,0.00
2022-11-19T20:36:45.314Z,0.10
2022-11-19T20:39:14.138Z,0.08
2022-11-19T20:42:01.382Z,-0.03
2022-11-19T20:44:30.374Z,0.14
2022-11-19T20:46:59.913Z,0.14
2022-11-19T20:49:29.628Z,0.13
2022-11-19T20:51:58.233Z,0.02
2022-11-19T20:54:27.452Z,-0.04
2022-11-19T20:56:57.491Z,-0.15
2022-11-19T20:59:26.643Z,-0.18
2022-11-19T21:01:55.966Z,-0.33
2022-11-19T21:04:25.408Z,-0.29
2022-11-19T21:06:54.673Z,-0.23
2022-11-19T21:09:23.351Z,-0.19
2022-11-19T21:11:51.870Z,-0.26
2022-11-19T21:14:21.344Z,-0.17
2022-11-19T21:16:49.475Z,-0.11
2022-11-19T21:19:17.747Z,-0.27
2022-11-19T21:21:46.034Z,-0.19
2022-11-19T21:24:15.766Z,-0.04
2022-11-19T21:26:43.906Z,-0.24
2022-11-19T21:29:12.595Z,-0.24
2022-11-19T21:31:44.284Z,-0.25
2022-11-19T21:34:13.675Z,-0.24
2022-11-19T21:36:43.332Z,-0.03
2022-11-19T21:39:13.876Z,-0.08
2022-11-19T21:41:42.293Z,-0.23
2022-11-19T21:44:10.975Z,-0.28
2022-11-19T21:46:39.678Z,-0.30
2022-11-19T21:49:09.153Z,-0.16
2022-11-19T21:51:37.305Z,-0.10
2022-11-19T21:54:05.880Z,-0.06
2022-11-19T21:56:38.500Z,-0.05
2022-11-19T21:59:07.552Z,-0.06
2022-11-19T22:01:35.969Z,-0.21
2022-11-19T22:04:04.450Z,-0.20
2022-11-19T22:06:34.069Z,-0.25
2022-11-19T22:09:02.220Z,-0.37
2022-11-19T22:11:30.735Z,-0.25
2022-11-19T22:14:01.402Z,-0.23
2022-11-19T22:16:30.581Z,-0.36
2022-11-19T22:18:58.951Z,-0.32
2022-11-19T22:21:27.655Z,-0.40
2022-11-19T22:23:57.454Z,-0.34
2022-11-19T22:26:26.234Z,-0.32
2022-11-19T22:28:54.468Z,-0.24
2022-11-19T22:31:22.624Z,-0.29
2022-11-19T22:33:51.894Z,-0.26
2022-11-19T22:36:21.556Z,-0.32
2022-11-19T22:38:50.295Z,-0.32
2022-11-19T22:41:21.697Z,-0.34
2022-11-19T22:43:50.925Z,-0.38
2022-11-19T22:46:20.199Z,-0.42
2022-11-19T22:48:48.823Z,-0.30
2022-11-19T22:51:20.095Z,-0.46
2022-11-19T22:53:48.970Z,-0.35
2022-11-19T22:56:18.929Z,-0.44
2022-11-19T22:58:49.770Z,-0.26
2022-11-19T23:01:20.231Z,-0.36
2022-11-19T23:03:48.595Z,-0.34
2022-11-19T23:06:17.369Z,-0.48
2022-11-19T23:08:46.646Z,-0.40
2022-11-19T23:11:16.392Z,-0.42
2022-11-19T23:13:45.048Z,-0.36
2022-11-19T23:16:16.410Z,-0.47
2022-11-19T23:18:48.330Z,-0.27
2022-11-19T23:21:18.875Z,-0.52
2022-11-19T23:23:47.081Z,-0.47
2022-11-19T23:26:17.853Z,-0.46
2022-11-19T23:28:46.504Z,-0.48
2022-11-19T23:31:17.718Z,-0.41
2022-11-19T23:33:47.034Z,-0.42
2022-11-19T23:36:17.621Z,-0.37
2022-11-19T23:38:46.191Z,-0.54
2022-11-19T23:41:15.960Z,-0.50
2022-11-19T23:43:44.464Z,-0.55
2022-11-19T23:46:14.835Z,-0.47
2022-11-19T23:48:46.458Z,-0.36
2022-11-19T23:51:16.352Z,-0.34
2022-11-19T23:53:45.196Z,-0.42
2022-11-19T23:56:14.777Z,-0.26
2022-11-19T23:58:43.655Z,-0.23
